Time;durP1;ratioP1;P1;durP2;ratioP2;P2;SDS_P1;SDS_P2;PMS_P1;PMS_P2;Temp;Humidity;BMP_temperature;BMP_pressure;BME280_temperature;BME280_humidity;BME280_pressure;Samples;Min_cycle;Max_cycle;Signal;HPM_P1;HPM_P2
2022/08/22 00:08:34;;;;;;;;;;;;;;;;;;20548764;27;102632;-72
2022/08/22 00:18:34;;;;;;;;;;;;;;;;;;20566349;27;101138;-72
2022/08/22 00:28:36;;;;;;;;;;;;;;;;;;20552790;27;101959;-72
2022/08/22 00:38:37;;;;;;;;;;;;;;;;;;20554883;28;101225;-72
2022/08/22 00:48:37;;;;;;;;;;;;;;;;;;20551086;28;101223;-71
2022/08/22 00:58:37;;;;;;;;;;;;;;;;;;20547651;27;100409;-72
2022/08/22 01:08:37;;;;;;;;;;;;;;;;;;20510723;27;102185;-72
2022/08/22 01:18:37;;;;;;;;;;;;;;;;;;20552178;27;100356;-72
2022/08/22 01:28:38;;;;;;;;;;;;;;;;;;20556900;28;102486;-72
2022/08/22 01:38:38;;;;;;;;;;;;;;;;;;20552156;27;104111;-72
2022/08/22 01:48:38;;;;;;;;;;;;;;;;;;20571101;28;100520;-72
2022/08/22 01:58:39;;;;;;;;;;;;;;;;;;20552325;27;104127;-72
2022/08/22 02:08:39;;;;;;;;;;;;;;;;;;20547190;28;102335;-72
2022/08/22 02:18:40;;;;;;;;;;;;;;;;;;20547376;28;101986;-72
2022/08/22 02:28:40;;;;;;;;;;;;;;;;;;20555195;27;103637;-72
2022/08/22 02:38:40;;;;;;;;;;;;;;;;;;20546491;27;102062;-73
2022/08/22 02:48:40;;;;;;;;;;;;;;;;;;20544515;27;102888;-73
2022/08/22 02:58:40;;;;;;;;;;;;;;;;;;20563789;28;101476;-73
2022/08/22 03:08:41;;;;;;;;;;;;;;;;;;20557554;27;102041;-72
2022/08/22 03:18:41;;;;;;;;;;;;;;;;;;20564027;28;100993;-72
2022/08/22 03:28:42;;;;;;;;;;;;;;;;;;20560456;27;100957;-73
2022/08/22 03:38:43;;;;;;;;;;;;;;;;;;20556109;28;100598;-73
2022/08/22 03:48:43;;;;;;;;;;;;;;;;;;20562968;27;100353;-73
2022/08/22 03:58:43;;;;;;;;;;;;;;;;;;20551699;28;103691;-73
2022/08/22 04:08:44;;;;;;;;;;;;;;;;;;20561742;27;103781;-74
2022/08/22 04:18:45;;;;;;;;;;;;;;;;;;20576672;27;101296;-74
2022/08/22 04:28:45;;;;;;;;;;;;;;;;;;20562544;27;101885;-73
2022/08/22 04:38:46;;;;;;;;;;;;;;;;;;20567926;27;100840;-73
2022/08/22 04:48:46;;;;;;;;;;;;;;;;;;20573229;27;100747;-75
2022/08/22 04:58:46;;;;;;;;;;;;;;;;;;20565858;27;101526;-71
2022/08/22 05:08:46;;;;;;;;;;;;;;;;;;20564799;27;101186;-72
2022/08/22 05:18:47;;;;;;;;;;;;;;;;;;20573723;27;101065;-72
2022/08/22 05:28:47;;;;;;;;;;;;;;;;;;20583373;27;101916;-71
2022/08/22 05:38:47;;;;;;;;;;;;;;;;;;20568476;27;101199;-71
2022/08/22 05:48:49;;;;;;;;;;;;;;;;;;20573299;28;101187;-72
2022/08/22 05:58:49;;;;;;;;;;;;;;;;;;20585774;28;100448;-73
2022/08/22 06:08:50;;;;;;;;;;;;;;;;;;20602030;27;101111;-72
2022/08/22 06:18:50;;;;;;;;;;;;;;;;;;20590135;28;102859;-72
2022/08/22 06:28:50;;;;;;;;;;;;;;;;;;20582268;28;100905;-73
2022/08/22 06:38:50;;;;;;;;;;;;;;;;;;20544831;27;100772;-72
2022/08/22 06:48:53;;;;;;;;;;;;;;;;;;20585192;28;102588;-73
2022/08/22 06:58:53;;;;;;;;;;;;;;;;;;20583587;28;103630;-74
2022/08/22 07:08:53;;;;;;;;;;;;;;;;;;20566732;28;102061;-73
2022/08/22 07:18:53;;;;;;;;;;;;;;;;;;20550621;28;100550;-70
2022/08/22 07:38:57;;;;;;;;;;;;;;;;;;20561669;28;102905;-71
2022/08/22 07:48:59;;;;;;;;;;;;;;;;;;20576386;28;100771;-69
2022/08/22 07:58:59;;;;;;;;;;;;;;;;;;20598664;28;101158;-69
2022/08/22 08:08:59;;;;;;;;;;;;;;;;;;20570581;28;100196;-69
2022/08/22 08:19:00;;;;;;;;;;;;;;;;;;20596301;28;100936;-70
2022/08/22 08:29:02;;;;;;;;;;;;;;;;;;20579794;27;104373;-70
2022/08/22 08:39:03;;;;;;;;;;;;;;;;;;20597032;28;101149;-69
2022/08/22 08:49:03;;;;;;;;;;;;;;;;;;20563849;28;100604;-68
2022/08/22 08:59:03;;;;;;;;;;;;;;;;;;20594531;28;100569;-69
2022/08/22 09:09:03;;;;;;;;;;;;;;;;;;20611157;28;101375;-69
2022/08/22 09:19:03;;;;;;;;;;;;;;;;;;20580934;27;105526;-69
2022/08/22 09:29:03;;;;;;;;;;;;;;;;;;20589228;28;104072;-70
2022/08/22 09:39:04;;;;;;;;;;;;;;;;;;20589781;28;100712;-70
2022/08/22 09:49:04;;;;;;;;;;;;;;;;;;20581237;27;101439;-70
2022/08/22 09:59:04;;;;;;;;;;;;;;;;;;20601232;28;100895;-71
2022/08/22 10:09:04;;;;;;;;;;;;;;;;;;20585044;28;101214;-72
2022/08/22 10:19:05;;;;;;;;;;;;;;;;;;20571970;28;100536;-69
2022/08/22 10:29:05;;;;;;;;;;;;;;;;;;20593100;28;100559;-71
2022/08/22 10:39:05;;;;;;;;;;;;;;;;;;20541801;28;103636;-70
2022/08/22 10:49:05;;;;;;;;;;;;;;;;;;20506904;28;100605;-69
2022/08/22 10:59:05;;;;;;;;;;;;;;;;;;20488757;28;102092;-70
2022/08/22 11:09:06;;;;;;;;;;;;;;;;;;20498196;28;101478;-69
2022/08/22 11:19:07;;;;;;;;;;;;;;;;;;20488334;28;101740;-72
2022/08/22 11:29:07;;;;;;;;;;;;;;;;;;20491689;28;104443;-71
2022/08/22 11:39:07;;;;;;;;;;;;;;;;;;20512461;28;102290;-72
2022/08/22 11:49:08;;;;;;;;;;;;;;;;;;20514328;28;102264;-73
2022/08/22 11:59:08;;;;;;;;;;;;;;;;;;20496416;28;104258;-70
2022/08/22 12:09:08;;;;;;;;;;;;;;;;;;20493993;28;105510;-70
2022/08/22 12:19:08;;;;;;;;;;;;;;;;;;20514945;28;100565;-71
2022/08/22 12:29:08;;;;;;;;;;;;;;;;;;20521087;28;100872;-71
2022/08/22 12:39:09;;;;;;;;;;;;;;;;;;20510211;28;100819;-71
2022/08/22 12:49:09;;;;;;;;;;;;;;;;;;20507516;28;103712;-70
2022/08/22 12:59:09;;;;;;;;;;;;;;;;;;20507878;28;102506;-71
2022/08/22 13:09:09;;;;;;;;;;;;;;;;;;20500203;28;101679;-70
2022/08/22 13:19:09;;;;;;;;;;;;;;;;;;20501416;28;101150;-72
2022/08/22 13:29:10;;;;;;;;;;;;;;;;;;20498864;28;104277;-71
2022/08/22 13:39:10;;;;;;;;;;;;;;;;;;20547186;28;104018;-71
2022/08/22 13:49:11;;;;;;;;;;;;;;;;;;20576074;27;101015;-71
2022/08/22 13:59:11;;;;;;;;;;;;;;;;;;20560497;27;101434;-71
2022/08/22 14:09:11;;;;;;;;;;;;;;;;;;20575325;28;100309;-70
2022/08/22 14:19:11;;;;;;;;;;;;;;;;;;20500466;28;101847;-70
2022/08/22 14:29:12;;;;;;;;;;;;;;;;;;20505650;28;101493;-70
2022/08/22 14:39:12;;;;;;;;;;;;;;;;;;20501512;28;100368;-69
2022/08/22 14:49:12;;;;;;;;;;;;;;;;;;20487970;28;105277;-69
2022/08/22 14:59:12;;;;;;;;;;;;;;;;;;20490732;28;106352;-69
2022/08/22 15:09:13;;;;;;;;;;;;;;;;;;20492919;28;106410;-70
2022/08/22 15:19:13;;;;;;;;;;;;;;;;;;20476866;28;100935;-69
2022/08/22 15:29:13;;;;;;;;;;;;;;;;;;20461778;28;100962;-71
2022/08/22 15:39:13;;;;;;;;;;;;;;;;;;20477235;28;100975;-70
2022/08/22 15:49:13;;;;;;;;;;;;;;;;;;20478771;28;102571;-71
2022/08/22 15:59:14;;;;;;;;;;;;;;;;;;20490213;28;101891;-72
2022/08/22 16:09:14;;;;;;;;;;;;;;;;;;20477807;28;103911;-73
2022/08/22 16:19:14;;;;;;;;;;;;;;;;;;20491153;28;104205;-70
2022/08/22 16:29:14;;;;;;;;;;;;;;;;;;20492042;28;104132;-70
2022/08/22 16:39:14;;;;;;;;;;;;;;;;;;20486390;28;100083;-70
2022/08/22 16:49:14;;;;;;;;;;;;;;;;;;20494705;28;100773;-70
2022/08/22 16:59:15;;;;;;;;;;;;;;;;;;20512186;28;101125;-70
2022/08/22 17:09:15;;;;;;;;;;;;;;;;;;20571368;28;103124;-71
2022/08/22 17:19:15;;;;;;;;;;;;;;;;;;20551885;28;101310;-70
2022/08/22 17:29:15;;;;;;;;;;;;;;;;;;20505861;28;100994;-70
2022/08/22 17:39:15;;;;;;;;;;;;;;;;;;20557085;27;101769;-71
2022/08/22 17:49:16;;;;;;;;;;;;;;;;;;20553420;28;105500;-70
2022/08/22 17:59:17;;;;;;;;;;;;;;;;;;20554477;28;100908;-71
2022/08/22 18:09:17;;;;;;;;;;;;;;;;;;20566617;28;105970;-70
2022/08/22 18:19:17;;;;;;;;;;;;;;;;;;20571348;28;100229;-71
2022/08/22 18:29:17;;;;;;;;;;;;;;;;;;20567181;28;100993;-70
2022/08/22 18:39:17;;;;;;;;;;;;;;;;;;20562664;28;101711;-70
2022/08/22 18:49:21;;;;;;;;;;;;;;;;;;20566119;27;102038;-71
2022/08/22 18:59:21;;;;;;;;;;;;;;;;;;20516035;28;101212;-70
2022/08/22 19:09:21;;;;;;;;;;;;;;;;;;20559973;27;101924;-70
2022/08/22 19:19:21;;;;;;;;;;;;;;;;;;20527978;28;101356;-70
2022/08/22 19:29:23;;;;;;;;;;;;;;;;;;20538873;28;101215;-72
2022/08/22 19:39:23;;;;;;;;;;;;;;;;;;20563422;28;101324;-70
2022/08/22 19:49:23;;;;;;;;;;;;;;;;;;20566278;28;104491;-71
2022/08/22 19:59:24;;;;;;;;;;;;;;;;;;20570269;28;104224;-71
2022/08/22 20:09:24;;;;;;;;;;;;;;;;;;20586286;27;104481;-71
2022/08/22 20:19:24;;;;;;;;;;;;;;;;;;20561747;27;101666;-71
2022/08/22 20:29:25;;;;;;;;;;;;;;;;;;20569833;28;101313;-72
2022/08/22 20:39:25;;;;;;;;;;;;;;;;;;20549946;27;102721;-71
2022/08/22 20:49:25;;;;;;;;;;;;;;;;;;20535798;28;103451;-72
2022/08/22 20:59:26;;;;;;;;;;;;;;;;;;20550385;27;101399;-72
2022/08/22 21:19:45;;;;;;;;;;;;;;;;;;20548936;28;101663;-72
2022/08/22 21:29:45;;;;;;;;;;;;;;;;;;20542610;28;103295;-71
2022/08/22 21:39:45;;;;;;;;;;;;;;;;;;20543112;27;101985;-71
2022/08/22 21:49:45;;;;;;;;;;;;;;;;;;20532494;28;104184;-71
2022/08/22 21:59:46;;;;;;;;;;;;;;;;;;20546965;28;101362;-71
2022/08/22 22:09:46;;;;;;;;;;;;;;;;;;20536176;28;104639;-71
2022/08/22 22:19:46;;;;;;;;;;;;;;;;;;20502298;27;104298;-71
2022/08/22 22:29:46;;;;;;;;;;;;;;;;;;20458926;28;101247;-72
2022/08/22 22:39:47;;;;;;;;;;;;;;;;;;20510890;28;102105;-71
2022/08/22 22:49:47;;;;;;;;;;;;;;;;;;20516134;28;101185;-71
2022/08/22 22:59:47;;;;;;;;;;;;;;;;;;20462992;28;100473;-71
2022/08/22 23:09:47;;;;;;;;;;;;;;;;;;20511991;28;101578;-72
2022/08/22 23:19:47;;;;;;;;;;;;;;;;;;20501558;28;100595;-71
2022/08/22 23:29:47;;;;;;;;;;;;;;;;;;20546554;28;108821;-71
2022/08/22 23:39:48;;;;;;;;;;;;;;;;;;20543548;28;101065;-71
2022/08/22 23:49:48;;;;;;;;;;;;;;;;;;20539223;28;102049;-71
2022/08/22 23:59:48;;;;;;;;;;;;;;;;;;20559629;28;104100;-72
